createdAt,value
2024-01-14T00:00:34.776Z,5.11
2024-01-14T00:03:02.615Z,5.13
2024-01-14T00:05:30.019Z,5.18
2024-01-14T00:07:58.005Z,5.04
2024-01-14T00:10:25.364Z,5.05
2024-01-14T00:12:52.549Z,5.06
2024-01-14T00:15:20.632Z,5.03
2024-01-14T00:17:48.517Z,5.12
2024-01-14T00:20:15.831Z,5.02
2024-01-14T00:22:43.104Z,5.10
2024-01-14T00:25:11.073Z,4.99
2024-01-14T00:27:38.103Z,4.97
2024-01-14T00:30:06.352Z,5.03
2024-01-14T00:32:34.372Z,5.03
2024-01-14T00:35:01.712Z,5.06
2024-01-14T00:37:28.918Z,5.04
2024-01-14T00:39:56.731Z,4.94
2024-01-14T00:42:23.847Z,5.03
2024-01-14T00:44:51.140Z,4.92
2024-01-14T00:47:18.861Z,5.01
2024-01-14T00:49:46.598Z,4.90
2024-01-14T00:52:13.897Z,4.96
2024-01-14T00:54:41.377Z,4.82
2024-01-14T00:57:09.517Z,4.82
2024-01-14T00:59:36.784Z,4.92
2024-01-14T01:02:04.236Z,4.83
2024-01-14T01:04:31.471Z,4.81
2024-01-14T01:06:58.605Z,4.74
2024-01-14T01:09:25.993Z,4.70
2024-01-14T01:11:53.293Z,4.77
2024-01-14T01:14:20.906Z,4.76
2024-01-14T01:16:48.148Z,4.85
2024-01-14T01:19:15.331Z,4.78
2024-01-14T01:21:42.746Z,4.74
2024-01-14T01:24:15.263Z,4.86
2024-01-14T01:26:42.812Z,4.83
2024-01-14T01:29:09.901Z,4.71
2024-01-14T01:31:45.929Z,4.69
2024-01-14T01:34:17.033Z,4.72
2024-01-14T01:36:44.353Z,4.78
2024-01-14T01:39:11.723Z,4.69
2024-01-14T01:41:39.232Z,4.67
2024-01-14T01:44:06.560Z,4.76
2024-01-14T01:46:35.915Z,4.65
2024-01-14T01:49:04.538Z,4.74
2024-01-14T01:51:32.694Z,4.61
2024-01-14T01:54:00.334Z,4.73
2024-01-14T01:56:27.954Z,4.61
2024-01-14T01:58:55.280Z,4.70
2024-01-14T02:01:23.078Z,4.57
2024-01-14T02:03:52.713Z,4.61
2024-01-14T02:06:20.915Z,4.57
2024-01-14T02:08:49.447Z,4.64
2024-01-14T02:11:16.668Z,4.63
2024-01-14T02:13:44.055Z,4.56
2024-01-14T02:16:11.113Z,4.60
2024-01-14T02:18:38.505Z,4.55
2024-01-14T02:21:07.862Z,4.63
2024-01-14T02:23:38.530Z,4.60
2024-01-14T02:26:05.993Z,4.53
2024-01-14T02:28:33.448Z,4.63
2024-01-14T02:31:00.880Z,4.55
2024-01-14T02:33:28.472Z,4.53
2024-01-14T02:35:56.162Z,4.53
2024-01-14T02:38:23.365Z,4.51
2024-01-14T02:40:50.586Z,4.56
2024-01-14T02:43:17.874Z,4.46
2024-01-14T02:45:45.210Z,4.57
2024-01-14T02:48:12.370Z,4.43
2024-01-14T02:50:39.592Z,4.55
2024-01-14T02:53:06.800Z,4.52
2024-01-14T02:55:34.137Z,4.40
2024-01-14T02:58:01.220Z,4.41
2024-01-14T03:00:28.449Z,4.39
2024-01-14T03:02:55.803Z,4.48
2024-01-14T03:05:23.284Z,4.40
2024-01-14T03:07:50.385Z,4.39
2024-01-14T03:10:17.569Z,4.48
2024-01-14T03:12:45.006Z,4.50
2024-01-14T03:15:12.583Z,4.38
2024-01-14T03:17:39.946Z,4.42
2024-01-14T03:20:08.892Z,4.40
2024-01-14T03:22:36.194Z,4.38
2024-01-14T03:25:03.384Z,4.38
2024-01-14T03:27:30.918Z,4.34
2024-01-14T03:29:58.257Z,4.29
2024-01-14T03:32:25.680Z,4.40
2024-01-14T03:34:53.080Z,4.29
2024-01-14T03:37:20.290Z,4.37
2024-01-14T03:39:47.448Z,4.34
2024-01-14T03:42:14.847Z,4.29
2024-01-14T03:44:43.505Z,4.33
2024-01-14T03:47:10.981Z,4.26
2024-01-14T03:49:38.527Z,4.28
2024-01-14T03:52:05.799Z,4.37
2024-01-14T03:54:32.992Z,4.29
2024-01-14T03:57:00.824Z,4.37
2024-01-14T03:59:28.180Z,4.38
2024-01-14T04:01:55.357Z,4.29
2024-01-14T04:04:22.869Z,4.36
2024-01-14T04:06:50.369Z,4.38
2024-01-14T04:09:17.608Z,4.39
2024-01-14T04:11:44.886Z,4.38
2024-01-14T04:14:12.079Z,4.38
2024-01-14T04:16:40.539Z,4.38
2024-01-14T04:19:08.391Z,4.37
2024-01-14T04:21:35.923Z,4.34
2024-01-14T04:24:05.980Z,4.26
2024-01-14T04:26:33.527Z,4.24
2024-01-14T04:29:00.820Z,4.31
2024-01-14T04:31:28.299Z,4.23
2024-01-14T04:33:56.953Z,4.24
2024-01-14T04:36:24.561Z,4.24
2024-01-14T04:38:51.848Z,4.22
2024-01-14T04:41:19.278Z,4.21
2024-01-14T04:43:46.331Z,4.20
2024-01-14T04:46:13.533Z,4.22
2024-01-14T04:48:40.901Z,4.16
2024-01-14T04:51:08.571Z,4.28
2024-01-14T04:53:35.725Z,4.27
2024-01-14T04:56:08.742Z,4.16
2024-01-14T04:58:36.030Z,4.26
2024-01-14T05:01:03.843Z,4.26
2024-01-14T05:03:31.388Z,4.24
2024-01-14T05:05:59.215Z,4.10
2024-01-14T05:08:26.481Z,4.12
2024-01-14T05:10:53.724Z,4.12
2024-01-14T05:13:20.933Z,4.10
2024-01-14T05:15:48.075Z,4.14
2024-01-14T05:18:15.549Z,4.18
2024-01-14T05:20:42.967Z,4.09
2024-01-14T05:23:10.355Z,4.07
2024-01-14T05:25:37.918Z,4.09
2024-01-14T05:28:05.532Z,4.08
2024-01-14T05:30:33.054Z,4.08
2024-01-14T05:33:00.515Z,4.13
2024-01-14T05:35:27.655Z,4.02
2024-01-14T05:37:55.061Z,4.14
2024-01-14T05:40:22.491Z,4.13
2024-01-14T05:42:49.796Z,4.05
2024-01-14T05:45:16.946Z,4.08
2024-01-14T05:47:44.383Z,4.02
2024-01-14T05:50:12.053Z,4.12
2024-01-14T05:52:39.594Z,4.10
2024-01-14T05:55:07.158Z,4.19
2024-01-14T05:57:34.464Z,4.07
2024-01-14T06:00:01.717Z,4.04
2024-01-14T06:02:34.117Z,4.22
2024-01-14T06:05:01.540Z,4.16
2024-01-14T06:07:28.837Z,4.14
2024-01-14T06:09:56.156Z,4.28
2024-01-14T06:12:23.496Z,4.20
2024-01-14T06:14:50.811Z,4.36
2024-01-14T06:17:18.208Z,4.39
2024-01-14T06:19:45.534Z,4.41
2024-01-14T06:22:14.156Z,4.40
2024-01-14T06:24:41.447Z,4.51
2024-01-14T06:27:08.902Z,4.56
2024-01-14T06:29:36.741Z,4.60
2024-01-14T06:32:03.892Z,4.56
2024-01-14T06:34:31.578Z,4.72
2024-01-14T06:37:00.308Z,4.77
2024-01-14T06:39:27.617Z,4.80
2024-01-14T06:41:54.894Z,4.77
2024-01-14T06:44:22.316Z,4.83
2024-01-14T06:46:49.734Z,4.90
2024-01-14T06:49:17.743Z,5.09
2024-01-14T06:51:46.285Z,5.25
2024-01-14T06:54:14.045Z,5.34
2024-01-14T06:56:49.060Z,5.57
2024-01-14T06:59:23.227Z,6.07
2024-01-14T07:01:50.969Z,6.56
2024-01-14T07:04:18.438Z,7.16
2024-01-14T07:06:45.875Z,7.84
2024-01-14T07:09:14.523Z,8.58
2024-01-14T07:11:42.049Z,9.37
2024-01-14T07:14:09.282Z,10.30
2024-01-14T07:16:37.603Z,11.17
2024-01-14T07:19:05.267Z,12.06
2024-01-14T07:21:33.020Z,12.81
2024-01-14T07:24:00.516Z,13.37
2024-01-14T07:26:27.794Z,13.84
2024-01-14T07:28:55.963Z,14.29
2024-01-14T07:31:32.151Z,14.26
2024-01-14T07:33:59.966Z,13.66
2024-01-14T07:36:27.526Z,12.95
2024-01-14T07:38:55.454Z,12.92
2024-01-14T07:41:22.853Z,13.04
2024-01-14T07:43:50.143Z,13.30
2024-01-14T07:46:17.638Z,13.87
2024-01-14T07:48:45.061Z,14.51
2024-01-14T07:51:12.407Z,14.89
2024-01-14T07:53:39.874Z,15.27
2024-01-14T07:56:07.479Z,15.33
2024-01-14T07:58:34.867Z,15.35
2024-01-14T08:01:03.540Z,15.54
2024-01-14T08:03:32.720Z,15.49
2024-01-14T08:06:00.944Z,15.03
2024-01-14T08:08:28.525Z,14.11
2024-01-14T08:10:56.023Z,13.38
2024-01-14T08:13:23.571Z,12.79
2024-01-14T08:15:58.030Z,12.23
2024-01-14T08:18:31.904Z,11.68
2024-01-14T08:21:00.777Z,11.28
2024-01-14T08:23:30.563Z,10.99
2024-01-14T08:25:59.133Z,10.72
2024-01-14T08:28:26.491Z,10.38
2024-01-14T08:30:53.825Z,10.35
2024-01-14T08:33:23.905Z,10.12
2024-01-14T08:35:51.528Z,10.14
2024-01-14T08:38:18.734Z,10.09
2024-01-14T08:40:46.190Z,10.03
2024-01-14T08:43:13.516Z,9.95
2024-01-14T08:45:40.889Z,10.00
2024-01-14T08:48:08.502Z,10.02
2024-01-14T08:50:36.551Z,10.02
2024-01-14T08:53:03.916Z,10.02
2024-01-14T08:55:32.542Z,9.99
2024-01-14T08:57:59.926Z,10.01
2024-01-14T09:00:27.402Z,10.05
2024-01-14T09:02:54.924Z,10.11
2024-01-14T09:05:22.374Z,10.26
2024-01-14T09:07:49.679Z,10.75
2024-01-14T09:10:17.120Z,11.45
2024-01-14T09:12:44.498Z,12.19
2024-01-14T09:15:11.864Z,12.63
2024-01-14T09:17:40.265Z,12.87
2024-01-14T09:20:08.536Z,13.12
2024-01-14T09:22:35.864Z,13.50
2024-01-14T09:25:03.175Z,13.59
2024-01-14T09:27:32.250Z,13.36
2024-01-14T09:30:00.662Z,13.18
2024-01-14T09:32:28.260Z,13.07
2024-01-14T09:34:56.588Z,13.12
2024-01-14T09:37:25.034Z,12.91
2024-01-14T09:39:52.361Z,12.78
2024-01-14T09:42:29.029Z,12.96
2024-01-14T09:45:03.355Z,12.98
2024-01-14T09:47:31.611Z,12.91
2024-01-14T09:50:00.181Z,12.77
2024-01-14T09:52:29.614Z,12.78
2024-01-14T09:54:56.851Z,12.63
2024-01-14T09:57:25.231Z,12.36
2024-01-14T09:59:52.887Z,12.12
2024-01-14T10:02:21.471Z,11.70
2024-01-14T10:04:49.423Z,11.86
2024-01-14T10:07:17.219Z,11.76
2024-01-14T10:09:45.077Z,11.77
2024-01-14T10:12:12.750Z,11.84
2024-01-14T10:14:42.270Z,11.76
2024-01-14T10:17:09.839Z,11.71
2024-01-14T10:19:39.171Z,11.66
2024-01-14T10:22:15.345Z,11.63
2024-01-14T10:24:56.185Z,11.67
2024-01-14T10:27:34.724Z,11.82
2024-01-14T10:30:15.454Z,11.64
2024-01-14T10:33:16.976Z,11.70
2024-01-14T10:35:32.462Z,11.76
2024-01-14T10:38:00.539Z,11.92
2024-01-14T10:40:28.345Z,12.00
2024-01-14T10:42:56.073Z,12.07
2024-01-14T10:45:23.863Z,12.15
2024-01-14T10:47:56.861Z,12.18
2024-01-14T10:50:28.502Z,12.02
2024-01-14T10:52:58.731Z,11.98
2024-01-14T10:55:42.453Z,11.94
2024-01-14T10:58:20.688Z,11.83
2024-01-14T11:00:50.743Z,11.74
2024-01-14T11:03:18.797Z,11.80
2024-01-14T11:05:46.515Z,11.85
2024-01-14T11:08:14.431Z,11.92
2024-01-14T11:10:41.769Z,11.96
2024-01-14T11:13:24.421Z,11.93
2024-01-14T11:16:05.173Z,11.88
2024-01-14T11:18:38.400Z,11.84
2024-01-14T11:21:46.477Z,11.81
2024-01-14T11:24:22.724Z,11.85
2024-01-14T11:26:50.397Z,11.83
2024-01-14T11:29:31.857Z,11.77
2024-01-14T11:32:07.628Z,11.64
2024-01-14T11:34:51.461Z,11.72
2024-01-14T11:37:31.968Z,11.95
2024-01-14T11:40:14.543Z,12.03
2024-01-14T11:43:00.074Z,12.21
2024-01-14T11:45:27.639Z,12.39
2024-01-14T11:47:58.781Z,12.45
2024-01-14T11:50:27.461Z,12.56
2024-01-14T11:52:57.574Z,12.55
2024-01-14T11:55:31.153Z,12.47
2024-01-14T11:58:12.704Z,12.59
2024-01-14T12:00:41.747Z,12.65
2024-01-14T12:03:14.110Z,12.60
2024-01-14T12:05:42.437Z,12.52
2024-01-14T12:08:10.288Z,12.49
2024-01-14T12:10:37.747Z,12.37
2024-01-14T12:13:09.010Z,12.39
2024-01-14T12:15:38.551Z,12.47
2024-01-14T12:18:08.116Z,12.45
2024-01-14T12:20:36.007Z,12.35
2024-01-14T12:23:07.736Z,12.23
2024-01-14T12:25:37.412Z,12.08
2024-01-14T12:28:05.783Z,12.16
2024-01-14T12:30:37.158Z,12.13
2024-01-14T12:33:06.757Z,12.20
2024-01-14T12:35:36.236Z,12.07
2024-01-14T12:38:04.595Z,12.20
2024-01-14T12:40:32.909Z,12.22
2024-01-14T12:43:01.761Z,12.06
2024-01-14T12:45:29.365Z,12.03
2024-01-14T12:48:07.485Z,12.13
2024-01-14T12:50:38.569Z,12.11
2024-01-14T12:53:13.929Z,12.16
2024-01-14T12:55:42.994Z,12.16
2024-01-14T12:58:10.938Z,12.17
2024-01-14T13:00:40.861Z,12.10
2024-01-14T13:03:08.837Z,12.15
2024-01-14T13:05:36.858Z,12.19
2024-01-14T13:08:07.148Z,12.13
2024-01-14T13:10:34.604Z,12.27
2024-01-14T13:13:01.967Z,12.18
2024-01-14T13:15:29.634Z,12.29
2024-01-14T13:17:58.252Z,12.32
2024-01-14T13:20:25.548Z,12.34
2024-01-14T13:22:52.940Z,12.24
2024-01-14T13:25:20.479Z,12.20
2024-01-14T13:27:47.881Z,12.16
2024-01-14T13:30:15.681Z,12.23
2024-01-14T13:32:43.315Z,12.32
2024-01-14T13:35:11.712Z,12.28
2024-01-14T13:37:39.411Z,12.27
2024-01-14T13:40:07.331Z,12.36
2024-01-14T13:42:37.682Z,12.31
2024-01-14T13:45:07.858Z,12.38
2024-01-14T13:47:35.520Z,12.30
2024-01-14T13:50:05.169Z,12.37
2024-01-14T13:52:32.681Z,12.47
2024-01-14T13:55:00.014Z,12.35
2024-01-14T13:57:27.720Z,12.40
2024-01-14T13:59:54.945Z,12.43
2024-01-14T14:02:22.668Z,12.44
2024-01-14T14:04:58.725Z,12.51
2024-01-14T14:07:35.389Z,12.49
2024-01-14T14:10:02.591Z,12.50
2024-01-14T14:12:29.916Z,12.39
2024-01-14T14:15:00.431Z,12.39
2024-01-14T14:17:30.623Z,12.48
2024-01-14T14:19:57.900Z,12.47
2024-01-14T14:22:25.279Z,12.45
2024-01-14T14:24:52.572Z,12.31
2024-01-14T14:27:19.745Z,12.41
2024-01-14T14:29:47.305Z,12.38
2024-01-14T14:32:14.910Z,12.28
2024-01-14T14:34:42.351Z,12.33
2024-01-14T14:37:09.861Z,12.22
2024-01-14T14:39:37.590Z,12.31
2024-01-14T14:42:05.548Z,12.14
2024-01-14T14:44:32.961Z,12.14
2024-01-14T14:47:00.088Z,12.21
2024-01-14T14:49:27.568Z,12.14
2024-01-14T14:51:55.073Z,11.99
2024-01-14T14:54:22.477Z,12.01
2024-01-14T14:56:49.735Z,11.96
2024-01-14T14:59:19.725Z,11.93
2024-01-14T15:01:48.365Z,11.85
2024-01-14T15:04:16.878Z,11.72
2024-01-14T15:06:46.151Z,11.65
2024-01-14T15:09:17.441Z,11.67
2024-01-14T15:11:45.344Z,11.61
2024-01-14T15:14:13.412Z,11.53
2024-01-14T15:16:42.976Z,11.46
2024-01-14T15:19:11.398Z,11.38
2024-01-14T15:21:38.874Z,11.28
2024-01-14T15:24:06.683Z,11.11
2024-01-14T15:26:33.974Z,11.07
2024-01-14T15:29:01.476Z,11.00
2024-01-14T15:31:29.140Z,11.02
2024-01-14T15:33:57.567Z,10.96
2024-01-14T15:36:25.656Z,10.92
2024-01-14T15:38:52.947Z,10.85
2024-01-14T15:41:20.102Z,10.79
2024-01-14T15:43:48.730Z,10.72
2024-01-14T15:46:15.956Z,10.67
2024-01-14T15:48:43.793Z,10.61
2024-01-14T15:51:14.017Z,10.42
2024-01-14T15:53:43.596Z,10.40
2024-01-14T15:56:11.343Z,10.42
2024-01-14T15:58:40.886Z,10.36
2024-01-14T16:01:12.587Z,10.32
2024-01-14T16:03:46.722Z,10.27
2024-01-14T16:06:16.418Z,10.22
2024-01-14T16:08:48.210Z,10.17
2024-01-14T16:11:16.896Z,10.17
2024-01-14T16:13:44.389Z,10.05
2024-01-14T16:16:11.947Z,10.09
2024-01-14T16:18:39.172Z,9.94
2024-01-14T16:21:08.354Z,10.00
2024-01-14T16:23:38.262Z,9.90
2024-01-14T16:26:07.156Z,9.94
2024-01-14T16:28:34.584Z,9.84
2024-01-14T16:31:10.488Z,9.88
2024-01-14T16:33:46.016Z,9.84
2024-01-14T16:36:15.764Z,9.74
2024-01-14T16:38:43.679Z,9.75
2024-01-14T16:41:11.065Z,9.71
2024-01-14T16:43:38.916Z,9.69
2024-01-14T16:46:06.974Z,9.55
2024-01-14T16:48:35.075Z,9.64
2024-01-14T16:51:09.862Z,9.58
2024-01-14T16:53:41.415Z,9.60
2024-01-14T16:56:12.766Z,9.60
2024-01-14T16:58:41.126Z,9.57
2024-01-14T17:01:15.798Z,9.51
2024-01-14T17:03:47.702Z,9.44
2024-01-14T17:06:16.707Z,9.50
2024-01-14T17:08:46.845Z,9.50
2024-01-14T17:11:15.784Z,9.49
2024-01-14T17:13:43.826Z,9.34
2024-01-14T17:16:24.592Z,9.41
2024-01-14T17:18:54.450Z,9.26
2024-01-14T17:21:22.160Z,9.28
2024-01-14T17:23:49.858Z,9.24
2024-01-14T17:26:17.942Z,9.32
2024-01-14T17:28:45.514Z,9.17
2024-01-14T17:31:15.364Z,9.09
2024-01-14T17:33:44.742Z,9.24
2024-01-14T17:36:13.538Z,9.13
2024-01-14T17:38:41.233Z,9.21
2024-01-14T17:41:12.179Z,9.19
2024-01-14T17:43:40.238Z,9.12
2024-01-14T17:46:09.763Z,9.13
2024-01-14T17:48:40.190Z,9.07
2024-01-14T17:51:09.973Z,9.08
2024-01-14T17:53:42.900Z,9.15
2024-01-14T17:56:10.649Z,9.06
2024-01-14T17:58:38.045Z,9.03
2024-01-14T18:01:11.258Z,9.11
2024-01-14T18:03:42.572Z,9.12
2024-01-14T18:06:12.528Z,9.12
2024-01-14T18:08:40.178Z,9.03
2024-01-14T18:11:07.713Z,8.84
2024-01-14T18:13:34.884Z,8.92
2024-01-14T18:16:02.233Z,8.76
2024-01-14T18:18:29.720Z,8.87
2024-01-14T18:20:57.885Z,8.84
2024-01-14T18:23:26.114Z,8.81
2024-01-14T18:25:53.310Z,8.74
2024-01-14T18:28:20.710Z,8.80
2024-01-14T18:30:47.913Z,8.75
2024-01-14T18:33:15.468Z,8.58
2024-01-14T18:35:44.438Z,8.69
2024-01-14T18:38:14.034Z,8.57
2024-01-14T18:40:41.362Z,8.63
2024-01-14T18:43:10.453Z,8.54
2024-01-14T18:45:39.218Z,8.58
2024-01-14T18:48:07.957Z,8.56
2024-01-14T18:50:36.148Z,8.64
2024-01-14T18:53:06.063Z,8.65
2024-01-14T18:55:36.457Z,8.53
2024-01-14T18:58:04.112Z,8.63
2024-01-14T19:00:31.630Z,8.67
2024-01-14T19:02:59.116Z,8.67
2024-01-14T19:05:27.975Z,8.68
2024-01-14T19:07:55.347Z,8.69
2024-01-14T19:10:22.821Z,8.70
2024-01-14T19:12:51.505Z,8.67
2024-01-14T19:15:20.323Z,8.66
2024-01-14T19:17:48.139Z,8.66
2024-01-14T19:20:15.806Z,8.60
2024-01-14T19:22:43.426Z,8.55
2024-01-14T19:25:11.250Z,8.65
2024-01-14T19:27:38.716Z,8.61
2024-01-14T19:30:07.597Z,8.58
2024-01-14T19:32:35.122Z,8.60
2024-01-14T19:35:02.587Z,8.51
2024-01-14T19:37:31.412Z,8.56
2024-01-14T19:39:59.975Z,8.54
2024-01-14T19:42:27.737Z,8.38
2024-01-14T19:44:55.308Z,8.49
2024-01-14T19:47:22.896Z,8.43
2024-01-14T19:49:50.375Z,8.46
2024-01-14T19:52:17.709Z,8.47
2024-01-14T19:54:45.104Z,8.41
2024-01-14T19:57:12.514Z,8.45
2024-01-14T19:59:39.737Z,8.36
2024-01-14T20:02:06.848Z,8.35
2024-01-14T20:04:34.279Z,8.36
2024-01-14T20:07:01.435Z,8.46
2024-01-14T20:09:28.786Z,8.45
2024-01-14T20:11:58.678Z,8.36
2024-01-14T20:14:25.977Z,8.36
2024-01-14T20:16:55.238Z,8.35
2024-01-14T20:19:23.522Z,8.29
2024-01-14T20:21:54.029Z,8.44
2024-01-14T20:24:22.795Z,8.44
2024-01-14T20:26:51.463Z,8.42
2024-01-14T20:29:18.784Z,8.43
2024-01-14T20:31:46.705Z,8.37
2024-01-14T20:34:14.332Z,8.35
2024-01-14T20:36:41.647Z,8.41
2024-01-14T20:39:09.944Z,8.32
2024-01-14T20:41:37.446Z,8.31
2024-01-14T20:44:05.025Z,8.42
2024-01-14T20:46:32.684Z,8.30
2024-01-14T20:49:00.140Z,8.42
2024-01-14T20:51:27.691Z,8.27
2024-01-14T20:53:55.638Z,8.40
2024-01-14T20:56:22.914Z,8.32
2024-01-14T20:58:50.402Z,8.41
2024-01-14T21:01:18.378Z,8.42
2024-01-14T21:03:45.719Z,8.41
2024-01-14T21:06:16.394Z,8.34
2024-01-14T21:08:45.940Z,8.24
2024-01-14T21:11:14.473Z,8.40
2024-01-14T21:13:42.479Z,8.37
2024-01-14T21:16:10.019Z,8.23
2024-01-14T21:18:38.523Z,8.37
2024-01-14T21:21:16.958Z,8.37
2024-01-14T21:23:44.638Z,8.33
2024-01-14T21:26:12.316Z,8.31
2024-01-14T21:28:39.823Z,8.29
2024-01-14T21:31:07.035Z,8.20
2024-01-14T21:33:34.713Z,8.15
2024-01-14T21:36:04.780Z,8.06
2024-01-14T21:38:32.741Z,8.07
2024-01-14T21:41:00.207Z,8.03
2024-01-14T21:43:27.639Z,8.09
2024-01-14T21:45:55.312Z,8.10
2024-01-14T21:48:22.954Z,8.06
2024-01-14T21:50:51.169Z,7.97
2024-01-14T21:53:18.682Z,8.06
2024-01-14T21:55:46.915Z,8.05
2024-01-14T21:58:14.516Z,7.95
2024-01-14T22:00:42.289Z,8.00
2024-01-14T22:03:09.787Z,7.97
2024-01-14T22:05:38.500Z,7.99
2024-01-14T22:08:05.942Z,7.89
2024-01-14T22:10:33.190Z,7.89
2024-01-14T22:13:00.482Z,7.99
2024-01-14T22:15:28.488Z,7.96
2024-01-14T22:17:56.059Z,7.97
2024-01-14T22:20:23.984Z,7.94
2024-01-14T22:22:51.310Z,7.83
2024-01-14T22:25:19.429Z,7.85
2024-01-14T22:27:47.022Z,7.92
2024-01-14T22:30:15.994Z,7.80
2024-01-14T22:32:43.428Z,7.87
2024-01-14T22:35:11.238Z,7.73
2024-01-14T22:37:38.529Z,7.77
2024-01-14T22:40:06.131Z,7.85
2024-01-14T22:42:33.698Z,7.85
2024-01-14T22:45:00.925Z,7.73
2024-01-14T22:47:28.307Z,7.84
2024-01-14T22:49:55.946Z,7.74
2024-01-14T22:52:23.403Z,7.76
2024-01-14T22:54:51.059Z,7.72
2024-01-14T22:57:18.343Z,7.80
2024-01-14T22:59:45.565Z,7.73
2024-01-14T23:02:12.930Z,7.78
2024-01-14T23:04:40.355Z,7.82
2024-01-14T23:07:07.789Z,7.81
2024-01-14T23:09:35.368Z,7.78
2024-01-14T23:12:02.668Z,7.76
2024-01-14T23:14:30.184Z,7.69
2024-01-14T23:16:58.484Z,7.71
2024-01-14T23:19:25.805Z,7.58
2024-01-14T23:21:53.153Z,7.61
2024-01-14T23:24:20.574Z,7.71
2024-01-14T23:26:47.852Z,7.62
2024-01-14T23:29:15.048Z,7.68
2024-01-14T23:31:42.374Z,7.58
2024-01-14T23:34:09.895Z,7.68
2024-01-14T23:36:37.138Z,7.62
2024-01-14T23:39:06.788Z,7.58
2024-01-14T23:41:34.205Z,7.67
2024-01-14T23:44:01.542Z,7.64
2024-01-14T23:46:30.768Z,7.64
2024-01-14T23:49:00.971Z,7.56
2024-01-14T23:51:28.923Z,7.51
2024-01-14T23:53:56.445Z,7.56
2024-01-14T23:56:24.134Z,7.57
2024-01-14T23:58:51.328Z,7.46
